Washington, IA (52353)

3:34 AM CST on January 21, 2017 (GMT -0600)
Washington | | Change Station
Active Advisory: Flood Warning, Dense Fog Advisory

Elev 751 ft 41.28 °N, 91.67 °W | Updated 19 minutes ago

Overcast
Overcast
46 °F
Feels Like 40 °F
N
14
Wind Variable Wind from South

Today
High -- | Low -- °F
--% Chance of Precip.
Yesterday
High -- | Low -- °F
Precip. -- in
Pressure 29.44 in
Visibility 1.0 miles
Clouds Overcast 300 ft
Windchill 40 °F
Dew Point 46 °F
Humidity 100%
Rainfall 0.00 in
Snow Depth Not available.
7:26 AM 5:09 PM
Last Quarter, 36% visible
METAR KAWG 210915Z AUTO 18012KT 1SM BR OVC003 08/08 A2944 RMK AO2
Pressure 29.44 in
Visibility 1.0 miles
Clouds Overcast 300 ft
Windchill 40 °F
Dew Point 46 °F
Humidity 100%
Rainfall 0.00 in
Snow Depth Not available.
7:26 AM 5:09 PM
Last Quarter, 36% visible
METAR KAWG 210915Z AUTO 18012KT 1SM BR OVC003 08/08 A2944 RMK AO2

Get Your Daily Forecast Email!

Thanks for signing up!

Be on the lookout for a verification email in your inbox.

You'll start receiving the daily forecast at 8 AM.

×

10-Day Weather Forecast

Almanac

Astronomy

Jan. 21, 2017 Rise Set
Actual Time
Civil Twilight
Nautical Twilight
Astronomical Twilight
Moon
Length of Visible Light
Length of Day
Tomorrow will be .
, % of the Moon is Illuminated

Today's Extremes

State Highs State Lows

Community

WunderPhotos

Upload Photos

1,962,540 photos uploaded!

WunderBlog® & News

Nearby

Air Quality

  Air Quality AQ Index Pollutant
Not available.

Snow Depth

Station Depth Elevation

Earthquake Activity

City Distance Mag. Time & Date
Minimum magnitude displayed is 2.5.

Coastal Water Temperatures

Place Temperature

Stations

Nearby Weather Stations

Station Location Temp. Windchill Dew Point Humidity Wind Precip. Elev Updated Type
                   

Watches & Warnings

Flood Warning
Issued: 1:14 AM CST Jan. 21, 2017 – National Weather Service

... Flood Warning in effect until today...

The National Weather Service in Quad Cities has issued a
* Flood Warning for
the English River at Kalona.
* Until today.
* At 1:00 am Saturday the stage was 14.0 feet... and rising.
* Flood stage is 14.0 feet.
* Minor flooding is occurring.
* Forecast... rise to 14.2 feet this morning. Fall below flood stage
later today.
* Impact... at 14.0 feet... agricultural land along the river begins
to flood.


Lat... Lon 4151 9194 4148 9194 4144 9173 4146 9152
      4152 9153




Dense Fog Advisory
Issued: 3:07 AM CST Jan. 21, 2017 – National Weather Service

... Dense fog advisory now in effect until noon CST today...

* timing... through this morning.

* Visibility... less than 1/4 mile at times.

* Impacts... dangerous driving conditions.

Precautionary/preparedness actions...

A dense fog advisory means visibilities will frequently be
reduced to less than one quarter mile. If driving... slow down...
use your headlights... and leave plenty of distance ahead of you.